Latest  Newer  Older  Last 2 hours animation  Current image  Latest image 
Rain/snow radar  Infrared sat images 
Real-time lightning map

All time is UTC (add 2 hours to UTC in wintertime, 3 hours to UTC in DST for Latvia local time)

2022/05/21 17:50 EVRA 211750Z 06006KT 6000 -RA BKN004 BKN012 OVC019 10/10 Q1003 NOSIG
2022/05/21 17:50 EVLA 211750Z AUTO 30003KT 270V330 9999 -RA OVC005/// 09/08 Q1003 RERA
2022/05/21 17:50 EVVA 211750Z AUTO 04006KT 4300 BR OVC009 10/10 Q1004
2022/05/21 17:50 EYKA 211750Z 28012KT 250V310 8000 -RA OVC007 09/08 Q1003
2022/05/21 17:50 EYPA 211750Z VRB03KT 9999 OVC007 09/08 Q1004
2022/05/21 17:50 EYSA 211750Z 28009KT 9000 -RA BKN005 OVC013 10/10 Q1003 NOSIG
2022/05/21 17:50 EYVI 211750Z 01010KT 7000 -SHRA BKN005 BKN026CB 12/11 Q1001 NOSIG
2022/05/21 07:50 EEKA 210750Z 03012KT 350V070 CAVOK 09/05 Q1008
2022/05/21 17:50 EEKE 211750Z AUTO 01003KT 9999NDV -RA FEW050 11/09 Q1006
2022/05/21 17:50 EEPU 211750Z AUTO 03010KT 340V060 9999 BKN083/// OVC120/// 14/03 Q1006
2022/05/21 17:50 EETN 211750Z 07014KT CAVOK 10/M01 Q1009 NOSIG
2022/05/21 17:50 EETU 211750Z AUTO 06007KT 9999 NCD 15/M02 Q1005
   RIGA AIRPORT     EVRA               56 55N  023 58E   10   X     T          6 LV
   LIEPAJA INTL     EVLA        26406  56 31N  021 06E    4   X                8 LV
   VENTPILS         EVVA               57 21N  021 33E    6   X                8 LV
   KAUNAS           EYKA               54 54N  023 55E   77   X     T          6 LT
   PALANGA INTL     EYPA               55 55N  021 03E   10   X                6 LT
   SIAULIAI INTL    EYSA               55 54N  023 24E  135   X     T          6 LT
   VILNIUS INTL     EYVI        26730  54 38N  025 17E  197   X     T          6 LT
   KARDLA           EEKA        26116  58 59N  022 50E    4   X                8 EE
   KURESSAARE       EEKE               58 14N  022 31E    4   X                8 EE
   PARNU            EEPU               58 25N  024 28E   14   X                8 EE
   TALLINN          EETN        26038  59 24N  024 49E   40   X     T          8 EE
   TARTU            EETU               58 19N  026 41E   67   X                8 EE

cloud coverage image from sat24.com and METAR data from weather.noaa.gov